sensor_id;sensor_type;location;lat;lon;timestamp;temperature;humidity
9662;DHT22;24982;52.344;12.990;2023-03-31T00:02:45;10.80;99.90
9662;DHT22;24982;52.344;12.990;2023-03-31T00:05:47;10.80;99.90
9662;DHT22;24982;52.344;12.990;2023-03-31T00:08:53;10.80;99.90
9662;DHT22;24982;52.344;12.990;2023-03-31T00:11:55;10.70;99.90
9662;DHT22;24982;52.344;12.990;2023-03-31T00:14:57;10.70;99.90
9662;DHT22;24982;52.344;12.990;2023-03-31T00:18:00;10.60;99.90
9662;DHT22;24982;52.344;12.990;2023-03-31T00:21:07;10.60;99.90
9662;DHT22;24982;52.344;12.990;2023-03-31T00:24:11;10.60;99.90
9662;DHT22;24982;52.344;12.990;2023-03-31T00:27:13;10.60;99.90
9662;DHT22;24982;52.344;12.990;2023-03-31T00:30:15;10.50;99.90
9662;DHT22;24982;52.344;12.990;2023-03-31T00:33:19;10.40;99.90
9662;DHT22;24982;52.344;12.990;2023-03-31T00:36:21;10.40;99.90
9662;DHT22;24982;52.344;12.990;2023-03-31T00:39:27;10.30;99.90
9662;DHT22;24982;52.344;12.990;2023-03-31T00:42:31;10.40;99.90
9662;DHT22;24982;52.344;12.990;2023-03-31T00:45:34;10.30;99.90
9662;DHT22;24982;52.344;12.990;2023-03-31T00:48:37;10.30;99.90
9662;DHT22;24982;52.344;12.990;2023-03-31T00:51:41;10.30;99.90
9662;DHT22;24982;52.344;12.990;2023-03-31T00:54:46;10.30;99.90
9662;DHT22;24982;52.344;12.990;2023-03-31T00:57:50;10.20;99.90
9662;DHT22;24982;52.344;12.990;2023-03-31T01:00:55;10.20;99.90
9662;DHT22;24982;52.344;12.990;2023-03-31T01:04:00;10.20;99.90
9662;DHT22;24982;52.344;12.990;2023-03-31T01:07:06;10.20;99.90
9662;DHT22;24982;52.344;12.990;2023-03-31T01:10:09;10.20;99.90
9662;DHT22;24982;52.344;12.990;2023-03-31T01:13:13;10.20;99.90
9662;DHT22;24982;52.344;12.990;2023-03-31T01:16:16;10.20;99.90
9662;DHT22;24982;52.344;12.990;2023-03-31T01:19:27;10.30;99.90
9662;DHT22;24982;52.344;12.990;2023-03-31T01:26:46;10.30;99.90
9662;DHT22;24982;52.344;12.990;2023-03-31T01:30:10;10.30;99.90
9662;DHT22;24982;52.344;12.990;2023-03-31T01:44:06;10.30;99.90
9662;DHT22;24982;52.344;12.990;2023-03-31T01:47:13;10.30;99.90
9662;DHT22;24982;52.344;12.990;2023-03-31T01:50:22;10.30;99.90
9662;DHT22;24982;52.344;12.990;2023-03-31T01:53:30;10.30;99.90
9662;DHT22;24982;52.344;12.990;2023-03-31T01:56:39;10.40;99.90
9662;DHT22;24982;52.344;12.990;2023-03-31T01:59:45;10.40;99.90
9662;DHT22;24982;52.344;12.990;2023-03-31T02:02:50;10.40;99.90
9662;DHT22;24982;52.344;12.990;2023-03-31T02:05:55;10.40;99.90
9662;DHT22;24982;52.344;12.990;2023-03-31T02:09:01;10.40;99.90
9662;DHT22;24982;52.344;12.990;2023-03-31T02:12:08;10.40;99.90
9662;DHT22;24982;52.344;12.990;2023-03-31T02:15:14;10.30;99.90
9662;DHT22;24982;52.344;12.990;2023-03-31T02:18:22;10.30;99.90
9662;DHT22;24982;52.344;12.990;2023-03-31T02:21:27;10.30;99.90
9662;DHT22;24982;52.344;12.990;2023-03-31T02:24:31;10.30;99.90
9662;DHT22;24982;52.344;12.990;2023-03-31T02:27:38;10.40;99.90
9662;DHT22;24982;52.344;12.990;2023-03-31T02:30:48;10.40;99.90
9662;DHT22;24982;52.344;12.990;2023-03-31T02:33:52;10.40;99.90
9662;DHT22;24982;52.344;12.990;2023-03-31T02:36:54;10.40;99.90
9662;DHT22;24982;52.344;12.990;2023-03-31T02:39:59;10.40;99.90
9662;DHT22;24982;52.344;12.990;2023-03-31T02:43:03;10.40;99.90
9662;DHT22;24982;52.344;12.990;2023-03-31T02:46:06;10.40;99.90
9662;DHT22;24982;52.344;12.990;2023-03-31T02:49:09;10.40;99.90
9662;DHT22;24982;52.344;12.990;2023-03-31T02:52:36;10.40;99.90
9662;DHT22;24982;52.344;12.990;2023-03-31T02:55:54;10.40;99.90
9662;DHT22;24982;52.344;12.990;2023-03-31T02:59:13;10.40;99.90
9662;DHT22;24982;52.344;12.990;2023-03-31T03:02:26;10.40;99.90
9662;DHT22;24982;52.344;12.990;2023-03-31T03:05:39;10.40;99.90
9662;DHT22;24982;52.344;12.990;2023-03-31T03:09:10;10.40;99.90
9662;DHT22;24982;52.344;12.990;2023-03-31T03:12:20;10.40;99.90
9662;DHT22;24982;52.344;12.990;2023-03-31T03:15:29;10.40;99.90
9662;DHT22;24982;52.344;12.990;2023-03-31T03:18:31;10.40;99.90
9662;DHT22;24982;52.344;12.990;2023-03-31T03:21:34;10.40;99.90
9662;DHT22;24982;52.344;12.990;2023-03-31T03:24:36;10.40;99.90
9662;DHT22;24982;52.344;12.990;2023-03-31T03:27:39;10.50;99.90
9662;DHT22;24982;52.344;12.990;2023-03-31T03:30:42;10.40;99.90
9662;DHT22;24982;52.344;12.990;2023-03-31T03:33:45;10.40;99.90
9662;DHT22;24982;52.344;12.990;2023-03-31T03:36:47;10.40;99.90
9662;DHT22;24982;52.344;12.990;2023-03-31T03:39:49;10.40;99.90
9662;DHT22;24982;52.344;12.990;2023-03-31T03:42:51;10.30;99.90
9662;DHT22;24982;52.344;12.990;2023-03-31T03:45:54;10.30;99.90
9662;DHT22;24982;52.344;12.990;2023-03-31T03:48:56;10.30;99.90
9662;DHT22;24982;52.344;12.990;2023-03-31T03:51:58;10.20;99.90
9662;DHT22;24982;52.344;12.990;2023-03-31T03:55:00;10.20;99.90
9662;DHT22;24982;52.344;12.990;2023-03-31T03:58:03;10.20;99.90
9662;DHT22;24982;52.344;12.990;2023-03-31T04:01:06;10.20;99.90
9662;DHT22;24982;52.344;12.990;2023-03-31T04:04:08;10.20;99.90
9662;DHT22;24982;52.344;12.990;2023-03-31T04:07:10;10.20;99.90
9662;DHT22;24982;52.344;12.990;2023-03-31T04:10:12;10.10;99.90
9662;DHT22;24982;52.344;12.990;2023-03-31T04:13:15;10.10;99.90
9662;DHT22;24982;52.344;12.990;2023-03-31T04:16:18;10.00;99.90
9662;DHT22;24982;52.344;12.990;2023-03-31T04:19:20;10.00;99.90
9662;DHT22;24982;52.344;12.990;2023-03-31T04:22:25;10.00;99.90
9662;DHT22;24982;52.344;12.990;2023-03-31T04:25:28;9.90;99.90
9662;DHT22;24982;52.344;12.990;2023-03-31T04:28:30;10.00;99.90
9662;DHT22;24982;52.344;12.990;2023-03-31T04:31:35;9.90;99.90
9662;DHT22;24982;52.344;12.990;2023-03-31T04:34:42;9.90;99.90
9662;DHT22;24982;52.344;12.990;2023-03-31T04:37:46;9.80;99.90
9662;DHT22;24982;52.344;12.990;2023-03-31T04:40:50;9.80;99.90
9662;DHT22;24982;52.344;12.990;2023-03-31T04:43:52;9.80;99.90
9662;DHT22;24982;52.344;12.990;2023-03-31T04:46:56;9.70;99.90
9662;DHT22;24982;52.344;12.990;2023-03-31T04:49:58;9.70;99.90
9662;DHT22;24982;52.344;12.990;2023-03-31T04:53:00;9.60;99.90
9662;DHT22;24982;52.344;12.990;2023-03-31T04:56:02;9.60;99.90
9662;DHT22;24982;52.344;12.990;2023-03-31T04:59:05;9.50;99.90
9662;DHT22;24982;52.344;12.990;2023-03-31T05:02:09;9.50;99.90
9662;DHT22;24982;52.344;12.990;2023-03-31T05:05:11;9.40;99.90
9662;DHT22;24982;52.344;12.990;2023-03-31T05:08:13;9.40;99.90
9662;DHT22;24982;52.344;12.990;2023-03-31T05:11:15;9.40;99.90
9662;DHT22;24982;52.344;12.990;2023-03-31T05:14:17;9.40;99.90
9662;DHT22;24982;52.344;12.990;2023-03-31T05:17:21;9.40;99.90
9662;DHT22;24982;52.344;12.990;2023-03-31T05:20:23;9.50;99.90
9662;DHT22;24982;52.344;12.990;2023-03-31T05:23:25;9.50;99.90
9662;DHT22;24982;52.344;12.990;2023-03-31T05:26:27;9.50;99.90
9662;DHT22;24982;52.344;12.990;2023-03-31T05:29:29;9.50;99.90
9662;DHT22;24982;52.344;12.990;2023-03-31T05:32:33;9.50;99.90
9662;DHT22;24982;52.344;12.990;2023-03-31T05:35:35;9.50;99.90
9662;DHT22;24982;52.344;12.990;2023-03-31T05:38:37;9.50;99.90
9662;DHT22;24982;52.344;12.990;2023-03-31T05:41:39;9.50;99.90
9662;DHT22;24982;52.344;12.990;2023-03-31T05:44:41;9.60;99.90
9662;DHT22;24982;52.344;12.990;2023-03-31T05:47:47;9.50;99.90
9662;DHT22;24982;52.344;12.990;2023-03-31T05:50:50;9.60;99.90
9662;DHT22;24982;52.344;12.990;2023-03-31T05:53:52;9.60;99.90
9662;DHT22;24982;52.344;12.990;2023-03-31T05:56:54;9.60;99.90
9662;DHT22;24982;52.344;12.990;2023-03-31T05:59:56;9.60;99.90
9662;DHT22;24982;52.344;12.990;2023-03-31T06:03:00;9.60;99.90
9662;DHT22;24982;52.344;12.990;2023-03-31T06:06:02;9.60;99.90
9662;DHT22;24982;52.344;12.990;2023-03-31T06:09:05;9.60;99.90
9662;DHT22;24982;52.344;12.990;2023-03-31T06:12:07;9.60;99.90
9662;DHT22;24982;52.344;12.990;2023-03-31T06:15:09;9.70;99.90
9662;DHT22;24982;52.344;12.990;2023-03-31T06:18:13;9.70;99.90
9662;DHT22;24982;52.344;12.990;2023-03-31T06:21:16;9.70;99.90
9662;DHT22;24982;52.344;12.990;2023-03-31T06:24:19;9.70;99.90
9662;DHT22;24982;52.344;12.990;2023-03-31T06:27:21;9.80;99.90
9662;DHT22;24982;52.344;12.990;2023-03-31T06:30:22;9.90;99.90
9662;DHT22;24982;52.344;12.990;2023-03-31T06:33:26;10.00;99.90
9662;DHT22;24982;52.344;12.990;2023-03-31T06:36:28;10.10;99.90
9662;DHT22;24982;52.344;12.990;2023-03-31T06:39:31;10.20;99.90
9662;DHT22;24982;52.344;12.990;2023-03-31T06:42:33;10.30;99.90
9662;DHT22;24982;52.344;12.990;2023-03-31T06:45:36;10.40;99.90
9662;DHT22;24982;52.344;12.990;2023-03-31T06:48:39;10.50;99.90
9662;DHT22;24982;52.344;12.990;2023-03-31T06:51:42;10.60;99.90
9662;DHT22;24982;52.344;12.990;2023-03-31T06:54:44;10.80;99.90
9662;DHT22;24982;52.344;12.990;2023-03-31T06:57:46;10.90;99.90
9662;DHT22;24982;52.344;12.990;2023-03-31T07:00:48;11.00;99.90
9662;DHT22;24982;52.344;12.990;2023-03-31T07:03:52;11.10;99.90
9662;DHT22;24982;52.344;12.990;2023-03-31T07:06:54;11.10;99.90
9662;DHT22;24982;52.344;12.990;2023-03-31T07:09:56;11.20;99.90
9662;DHT22;24982;52.344;12.990;2023-03-31T07:12:58;11.20;99.90
9662;DHT22;24982;52.344;12.990;2023-03-31T07:16:01;11.20;99.90
9662;DHT22;24982;52.344;12.990;2023-03-31T07:19:07;11.30;99.90
9662;DHT22;24982;52.344;12.990;2023-03-31T07:22:10;11.40;99.90
9662;DHT22;24982;52.344;12.990;2023-03-31T07:25:15;11.40;99.90
9662;DHT22;24982;52.344;12.990;2023-03-31T07:28:17;11.60;99.90
9662;DHT22;24982;52.344;12.990;2023-03-31T07:31:19;11.60;99.90
9662;DHT22;24982;52.344;12.990;2023-03-31T07:34:23;11.70;99.90
9662;DHT22;24982;52.344;12.990;2023-03-31T07:37:25;11.90;99.90
9662;DHT22;24982;52.344;12.990;2023-03-31T07:40:28;12.00;99.90
9662;DHT22;24982;52.344;12.990;2023-03-31T07:43:30;12.10;99.90
9662;DHT22;24982;52.344;12.990;2023-03-31T07:46:32;12.20;99.90
9662;DHT22;24982;52.344;12.990;2023-03-31T07:49:36;12.20;99.90
9662;DHT22;24982;52.344;12.990;2023-03-31T07:52:38;12.30;99.90
9662;DHT22;24982;52.344;12.990;2023-03-31T07:55:40;12.30;99.90
9662;DHT22;24982;52.344;12.990;2023-03-31T07:58:42;12.30;99.90
9662;DHT22;24982;52.344;12.990;2023-03-31T08:01:45;12.30;99.90
9662;DHT22;24982;52.344;12.990;2023-03-31T08:04:48;12.40;99.90
9662;DHT22;24982;52.344;12.990;2023-03-31T08:07:50;12.40;99.90
9662;DHT22;24982;52.344;12.990;2023-03-31T08:10:52;12.50;99.90
9662;DHT22;24982;52.344;12.990;2023-03-31T08:13:54;12.50;99.90
9662;DHT22;24982;52.344;12.990;2023-03-31T08:16:56;12.60;99.90
9662;DHT22;24982;52.344;12.990;2023-03-31T08:20:01;12.60;99.90
9662;DHT22;24982;52.344;12.990;2023-03-31T08:23:06;12.60;99.90
9662;DHT22;24982;52.344;12.990;2023-03-31T08:26:12;12.60;99.90
9662;DHT22;24982;52.344;12.990;2023-03-31T08:29:14;12.70;99.90
9662;DHT22;24982;52.344;12.990;2023-03-31T08:32:16;12.70;99.90
9662;DHT22;24982;52.344;12.990;2023-03-31T08:35:20;12.80;99.90
9662;DHT22;24982;52.344;12.990;2023-03-31T08:38:22;12.90;99.90
9662;DHT22;24982;52.344;12.990;2023-03-31T08:41:36;13.10;99.90
9662;DHT22;24982;52.344;12.990;2023-03-31T08:44:43;13.20;99.90
9662;DHT22;24982;52.344;12.990;2023-03-31T08:47:47;13.30;99.90
9662;DHT22;24982;52.344;12.990;2023-03-31T08:50:56;13.30;99.90
9662;DHT22;24982;52.344;12.990;2023-03-31T08:54:00;13.30;99.90
9662;DHT22;24982;52.344;12.990;2023-03-31T08:57:09;13.30;99.90
9662;DHT22;24982;52.344;12.990;2023-03-31T09:00:15;13.30;99.90
9662;DHT22;24982;52.344;12.990;2023-03-31T09:03:25;13.40;99.90
9662;DHT22;24982;52.344;12.990;2023-03-31T09:06:35;13.50;99.90
9662;DHT22;24982;52.344;12.990;2023-03-31T09:09:44;13.60;99.90
9662;DHT22;24982;52.344;12.990;2023-03-31T09:12:52;13.60;99.90
9662;DHT22;24982;52.344;12.990;2023-03-31T09:16:00;13.60;99.90
9662;DHT22;24982;52.344;12.990;2023-03-31T09:19:12;13.50;99.90
9662;DHT22;24982;52.344;12.990;2023-03-31T09:22:19;13.50;99.90
9662;DHT22;24982;52.344;12.990;2023-03-31T09:25:26;13.50;99.90
9662;DHT22;24982;52.344;12.990;2023-03-31T09:28:32;13.50;99.90
9662;DHT22;24982;52.344;12.990;2023-03-31T09:31:37;13.40;99.90
9662;DHT22;24982;52.344;12.990;2023-03-31T09:34:42;13.40;99.90
9662;DHT22;24982;52.344;12.990;2023-03-31T09:37:47;13.50;99.90
9662;DHT22;24982;52.344;12.990;2023-03-31T09:40:49;13.50;99.90
9662;DHT22;24982;52.344;12.990;2023-03-31T09:43:51;13.20;99.90
9662;DHT22;24982;52.344;12.990;2023-03-31T09:46:54;13.10;99.90
9662;DHT22;24982;52.344;12.990;2023-03-31T09:49:56;13.00;99.90
9662;DHT22;24982;52.344;12.990;2023-03-31T09:52:59;12.90;99.90
9662;DHT22;24982;52.344;12.990;2023-03-31T09:56:04;12.80;99.90
9662;DHT22;24982;52.344;12.990;2023-03-31T09:59:13;12.70;99.90
9662;DHT22;24982;52.344;12.990;2023-03-31T10:02:33;12.60;99.90
9662;DHT22;24982;52.344;12.990;2023-03-31T10:05:38;12.40;99.90
9662;DHT22;24982;52.344;12.990;2023-03-31T10:08:53;12.30;99.90
9662;DHT22;24982;52.344;12.990;2023-03-31T10:11:58;12.20;99.90
9662;DHT22;24982;52.344;12.990;2023-03-31T10:15:21;12.20;99.90
9662;DHT22;24982;52.344;12.990;2023-03-31T10:18:33;12.20;99.90
9662;DHT22;24982;52.344;12.990;2023-03-31T10:21:36;12.10;99.90
9662;DHT22;24982;52.344;12.990;2023-03-31T10:24:40;12.10;99.90
9662;DHT22;24982;52.344;12.990;2023-03-31T10:27:45;12.20;99.90
9662;DHT22;24982;52.344;12.990;2023-03-31T10:30:49;12.20;99.90
9662;DHT22;24982;52.344;12.990;2023-03-31T10:33:52;12.50;99.90
9662;DHT22;24982;52.344;12.990;2023-03-31T10:36:55;12.50;99.90
9662;DHT22;24982;52.344;12.990;2023-03-31T10:40:00;12.90;99.90
9662;DHT22;24982;52.344;12.990;2023-03-31T10:43:12;13.40;99.90
9662;DHT22;24982;52.344;12.990;2023-03-31T10:46:15;14.10;99.90
9662;DHT22;24982;52.344;12.990;2023-03-31T10:49:25;14.50;99.90
9662;DHT22;24982;52.344;12.990;2023-03-31T10:52:27;14.20;99.90
9662;DHT22;24982;52.344;12.990;2023-03-31T10:55:35;14.10;99.90
9662;DHT22;24982;52.344;12.990;2023-03-31T10:58:45;13.70;99.90
9662;DHT22;24982;52.344;12.990;2023-03-31T11:02:11;13.40;99.90
9662;DHT22;24982;52.344;12.990;2023-03-31T11:05:16;13.20;99.90
9662;DHT22;24982;52.344;12.990;2023-03-31T11:08:36;13.00;99.90
9662;DHT22;24982;52.344;12.990;2023-03-31T11:11:58;13.00;99.90
9662;DHT22;24982;52.344;12.990;2023-03-31T11:15:10;12.70;99.90
9662;DHT22;24982;52.344;12.990;2023-03-31T11:18:29;12.50;99.90
9662;DHT22;24982;52.344;12.990;2023-03-31T11:21:42;12.30;99.90
9662;DHT22;24982;52.344;12.990;2023-03-31T11:25:10;12.40;99.90
9662;DHT22;24982;52.344;12.990;2023-03-31T11:28:34;12.20;99.90
9662;DHT22;24982;52.344;12.990;2023-03-31T11:31:45;12.30;99.90
9662;DHT22;24982;52.344;12.990;2023-03-31T11:35:02;12.50;99.90
9662;DHT22;24982;52.344;12.990;2023-03-31T11:38:22;12.50;99.90
9662;DHT22;24982;52.344;12.990;2023-03-31T11:41:33;12.60;99.90
9662;DHT22;24982;52.344;12.990;2023-03-31T11:44:40;12.60;99.90
9662;DHT22;24982;52.344;12.990;2023-03-31T11:47:43;12.50;99.90
9662;DHT22;24982;52.344;12.990;2023-03-31T11:50:47;12.50;99.90
9662;DHT22;24982;52.344;12.990;2023-03-31T11:53:52;12.50;99.90
9662;DHT22;24982;52.344;12.990;2023-03-31T11:56:55;12.60;99.90
9662;DHT22;24982;52.344;12.990;2023-03-31T12:00:04;12.50;99.90
9662;DHT22;24982;52.344;12.990;2023-03-31T12:03:15;12.60;99.90
9662;DHT22;24982;52.344;12.990;2023-03-31T12:06:20;12.50;99.90
9662;DHT22;24982;52.344;12.990;2023-03-31T12:09:26;12.40;99.90
9662;DHT22;24982;52.344;12.990;2023-03-31T12:12:33;12.30;99.90
9662;DHT22;24982;52.344;12.990;2023-03-31T12:15:41;12.20;99.90
9662;DHT22;24982;52.344;12.990;2023-03-31T12:18:56;12.10;99.90
9662;DHT22;24982;52.344;12.990;2023-03-31T12:22:06;12.00;99.90
9662;DHT22;24982;52.344;12.990;2023-03-31T12:25:11;11.90;99.90
9662;DHT22;24982;52.344;12.990;2023-03-31T12:28:15;11.90;99.90
9662;DHT22;24982;52.344;12.990;2023-03-31T12:31:22;11.90;99.90
9662;DHT22;24982;52.344;12.990;2023-03-31T12:34:26;11.70;99.90
9662;DHT22;24982;52.344;12.990;2023-03-31T12:37:59;11.70;99.90
9662;DHT22;24982;52.344;12.990;2023-03-31T12:41:12;11.60;99.90
9662;DHT22;24982;52.344;12.990;2023-03-31T12:44:28;11.60;99.90
9662;DHT22;24982;52.344;12.990;2023-03-31T12:47:58;11.60;99.90
9662;DHT22;24982;52.344;12.990;2023-03-31T12:51:20;11.50;99.90
9662;DHT22;24982;52.344;12.990;2023-03-31T12:54:49;11.50;99.90
9662;DHT22;24982;52.344;12.990;2023-03-31T13:05:44;10.90;99.90
9662;DHT22;24982;52.344;12.990;2023-03-31T13:08:52;11.00;99.90
9662;DHT22;24982;52.344;12.990;2023-03-31T13:11:55;10.90;99.90
9662;DHT22;24982;52.344;12.990;2023-03-31T13:14:57;10.80;99.90
9662;DHT22;24982;52.344;12.990;2023-03-31T13:18:01;10.80;99.90
9662;DHT22;24982;52.344;12.990;2023-03-31T13:21:05;10.70;99.90
9662;DHT22;24982;52.344;12.990;2023-03-31T13:24:08;10.70;99.90
9662;DHT22;24982;52.344;12.990;2023-03-31T13:27:29;10.70;99.90
9662;DHT22;24982;52.344;12.990;2023-03-31T13:30:47;10.70;99.90
9662;DHT22;24982;52.344;12.990;2023-03-31T13:33:52;10.60;99.90
9662;DHT22;24982;52.344;12.990;2023-03-31T13:37:07;10.50;99.90
9662;DHT22;24982;52.344;12.990;2023-03-31T13:40:36;10.60;99.90
9662;DHT22;24982;52.344;12.990;2023-03-31T13:47:48;10.60;99.90
9662;DHT22;24982;52.344;12.990;2023-03-31T13:51:00;10.50;99.90
9662;DHT22;24982;52.344;12.990;2023-03-31T13:54:36;10.50;99.90
9662;DHT22;24982;52.344;12.990;2023-03-31T14:01:33;10.50;99.90
9662;DHT22;24982;52.344;12.990;2023-03-31T14:08:02;10.60;99.90
9662;DHT22;24982;52.344;12.990;2023-03-31T14:11:21;10.60;99.90
9662;DHT22;24982;52.344;12.990;2023-03-31T14:14:23;10.50;99.90
9662;DHT22;24982;52.344;12.990;2023-03-31T14:17:28;10.40;99.90
9662;DHT22;24982;52.344;12.990;2023-03-31T14:20:34;10.40;99.90
9662;DHT22;24982;52.344;12.990;2023-03-31T14:23:46;10.50;99.90
9662;DHT22;24982;52.344;12.990;2023-03-31T14:26:58;10.60;99.90
9662;DHT22;24982;52.344;12.990;2023-03-31T14:30:12;10.50;99.90
9662;DHT22;24982;52.344;12.990;2023-03-31T14:33:31;10.40;99.90
9662;DHT22;24982;52.344;12.990;2023-03-31T14:36:41;10.30;99.90
9662;DHT22;24982;52.344;12.990;2023-03-31T14:39:47;10.30;99.90
9662;DHT22;24982;52.344;12.990;2023-03-31T14:42:52;10.40;99.90
9662;DHT22;24982;52.344;12.990;2023-03-31T14:45:58;10.40;99.90
9662;DHT22;24982;52.344;12.990;2023-03-31T14:49:06;10.50;99.90
9662;DHT22;24982;52.344;12.990;2023-03-31T14:52:17;10.50;99.90
9662;DHT22;24982;52.344;12.990;2023-03-31T14:55:23;10.60;99.90
9662;DHT22;24982;52.344;12.990;2023-03-31T14:58:29;10.60;99.90
9662;DHT22;24982;52.344;12.990;2023-03-31T15:01:35;10.50;99.90
9662;DHT22;24982;52.344;12.990;2023-03-31T15:04:40;10.60;99.90
9662;DHT22;24982;52.344;12.990;2023-03-31T15:07:47;10.70;99.90
9662;DHT22;24982;52.344;12.990;2023-03-31T15:10:50;10.80;99.90
9662;DHT22;24982;52.344;12.990;2023-03-31T15:13:54;10.90;99.90
9662;DHT22;24982;52.344;12.990;2023-03-31T15:16:57;10.90;99.90
9662;DHT22;24982;52.344;12.990;2023-03-31T15:20:00;11.00;99.90
9662;DHT22;24982;52.344;12.990;2023-03-31T15:23:18;10.90;99.90
9662;DHT22;24982;52.344;12.990;2023-03-31T15:26:27;10.90;99.90
9662;DHT22;24982;52.344;12.990;2023-03-31T15:29:34;10.90;99.90
9662;DHT22;24982;52.344;12.990;2023-03-31T15:32:38;10.90;99.90
9662;DHT22;24982;52.344;12.990;2023-03-31T15:35:41;10.90;99.90
9662;DHT22;24982;52.344;12.990;2023-03-31T15:38:43;10.90;99.90
9662;DHT22;24982;52.344;12.990;2023-03-31T15:41:47;11.00;99.90
9662;DHT22;24982;52.344;12.990;2023-03-31T15:44:55;10.90;99.90
9662;DHT22;24982;52.344;12.990;2023-03-31T15:48:00;11.00;99.90
9662;DHT22;24982;52.344;12.990;2023-03-31T15:51:06;11.00;99.90
9662;DHT22;24982;52.344;12.990;2023-03-31T15:54:30;11.00;99.90
9662;DHT22;24982;52.344;12.990;2023-03-31T15:57:34;11.00;99.90
9662;DHT22;24982;52.344;12.990;2023-03-31T16:00:43;11.00;99.90
9662;DHT22;24982;52.344;12.990;2023-03-31T16:03:46;11.00;99.90
9662;DHT22;24982;52.344;12.990;2023-03-31T16:06:50;11.00;99.90
9662;DHT22;24982;52.344;12.990;2023-03-31T16:09:58;11.10;99.90
9662;DHT22;24982;52.344;12.990;2023-03-31T16:13:04;11.00;99.90
9662;DHT22;24982;52.344;12.990;2023-03-31T16:16:10;11.00;99.90
9662;DHT22;24982;52.344;12.990;2023-03-31T16:19:13;11.10;99.90
9662;DHT22;24982;52.344;12.990;2023-03-31T16:22:18;11.10;99.90
9662;DHT22;24982;52.344;12.990;2023-03-31T16:25:23;11.10;99.90
9662;DHT22;24982;52.344;12.990;2023-03-31T16:28:27;11.10;99.90
9662;DHT22;24982;52.344;12.990;2023-03-31T16:31:34;11.00;99.90
9662;DHT22;24982;52.344;12.990;2023-03-31T16:34:54;11.00;99.90
9662;DHT22;24982;52.344;12.990;2023-03-31T16:37:56;10.90;99.90
9662;DHT22;24982;52.344;12.990;2023-03-31T16:41:01;10.90;99.90
9662;DHT22;24982;52.344;12.990;2023-03-31T16:44:03;10.80;99.90
9662;DHT22;24982;52.344;12.990;2023-03-31T16:47:07;10.80;99.90
9662;DHT22;24982;52.344;12.990;2023-03-31T16:50:09;10.80;99.90
9662;DHT22;24982;52.344;12.990;2023-03-31T16:53:12;10.80;99.90
9662;DHT22;24982;52.344;12.990;2023-03-31T16:56:14;10.80;99.90
9662;DHT22;24982;52.344;12.990;2023-03-31T16:59:16;10.70;99.90
9662;DHT22;24982;52.344;12.990;2023-03-31T17:02:20;10.70;99.90
9662;DHT22;24982;52.344;12.990;2023-03-31T17:05:22;10.60;99.90
9662;DHT22;24982;52.344;12.990;2023-03-31T17:08:26;10.60;99.90
9662;DHT22;24982;52.344;12.990;2023-03-31T17:11:28;10.70;99.90
9662;DHT22;24982;52.344;12.990;2023-03-31T17:14:30;10.80;99.90
9662;DHT22;24982;52.344;12.990;2023-03-31T17:17:33;10.80;99.90
9662;DHT22;24982;52.344;12.990;2023-03-31T17:20:36;10.80;99.90
9662;DHT22;24982;52.344;12.990;2023-03-31T17:23:38;10.90;99.90
9662;DHT22;24982;52.344;12.990;2023-03-31T17:26:40;10.90;99.90
9662;DHT22;24982;52.344;12.990;2023-03-31T17:29:42;10.90;99.90
9662;DHT22;24982;52.344;12.990;2023-03-31T17:32:45;10.80;99.90
9662;DHT22;24982;52.344;12.990;2023-03-31T17:35:48;10.80;99.90
9662;DHT22;24982;52.344;12.990;2023-03-31T17:38:50;10.90;99.90
9662;DHT22;24982;52.344;12.990;2023-03-31T17:41:52;10.90;99.90
9662;DHT22;24982;52.344;12.990;2023-03-31T17:44:54;10.90;99.90
9662;DHT22;24982;52.344;12.990;2023-03-31T17:47:59;10.90;99.90
9662;DHT22;24982;52.344;12.990;2023-03-31T17:51:03;10.90;99.90
9662;DHT22;24982;52.344;12.990;2023-03-31T17:54:07;10.90;99.90
9662;DHT22;24982;52.344;12.990;2023-03-31T17:57:09;10.90;99.90
9662;DHT22;24982;52.344;12.990;2023-03-31T18:00:12;10.90;99.90
9662;DHT22;24982;52.344;12.990;2023-03-31T18:03:17;10.90;99.90
9662;DHT22;24982;52.344;12.990;2023-03-31T18:06:19;10.90;99.90
9662;DHT22;24982;52.344;12.990;2023-03-31T18:09:21;10.90;99.90
9662;DHT22;24982;52.344;12.990;2023-03-31T18:12:24;10.90;99.90
9662;DHT22;24982;52.344;12.990;2023-03-31T18:15:28;10.80;99.90
9662;DHT22;24982;52.344;12.990;2023-03-31T18:18:31;10.80;99.90
9662;DHT22;24982;52.344;12.990;2023-03-31T18:21:33;10.80;99.90
9662;DHT22;24982;52.344;12.990;2023-03-31T18:24:36;10.70;99.90
9662;DHT22;24982;52.344;12.990;2023-03-31T18:27:40;10.70;99.90
9662;DHT22;24982;52.344;12.990;2023-03-31T18:30:42;10.70;99.90
9662;DHT22;24982;52.344;12.990;2023-03-31T18:33:48;10.80;99.90
9662;DHT22;24982;52.344;12.990;2023-03-31T18:36:51;10.80;99.90
9662;DHT22;24982;52.344;12.990;2023-03-31T18:39:54;10.80;99.90
9662;DHT22;24982;52.344;12.990;2023-03-31T18:42:56;10.80;99.90
9662;DHT22;24982;52.344;12.990;2023-03-31T18:45:58;10.80;99.90
9662;DHT22;24982;52.344;12.990;2023-03-31T18:49:02;10.80;99.90
9662;DHT22;24982;52.344;12.990;2023-03-31T18:52:04;10.80;99.90
9662;DHT22;24982;52.344;12.990;2023-03-31T18:55:07;10.80;99.90
9662;DHT22;24982;52.344;12.990;2023-03-31T18:58:10;10.80;99.90
9662;DHT22;24982;52.344;12.990;2023-03-31T19:01:12;10.70;99.90
9662;DHT22;24982;52.344;12.990;2023-03-31T19:04:15;10.70;99.90
9662;DHT22;24982;52.344;12.990;2023-03-31T19:07:17;10.70;99.90
9662;DHT22;24982;52.344;12.990;2023-03-31T19:10:19;10.80;99.90
9662;DHT22;24982;52.344;12.990;2023-03-31T19:13:21;10.70;99.90
9662;DHT22;24982;52.344;12.990;2023-03-31T19:16:23;10.70;99.90
9662;DHT22;24982;52.344;12.990;2023-03-31T19:19:27;10.70;99.90
9662;DHT22;24982;52.344;12.990;2023-03-31T19:22:29;10.70;99.90
9662;DHT22;24982;52.344;12.990;2023-03-31T19:25:31;10.70;99.90
9662;DHT22;24982;52.344;12.990;2023-03-31T19:28:33;10.70;99.90
9662;DHT22;24982;52.344;12.990;2023-03-31T19:31:35;10.80;99.90
9662;DHT22;24982;52.344;12.990;2023-03-31T19:34:41;10.70;99.90
9662;DHT22;24982;52.344;12.990;2023-03-31T19:37:45;10.80;99.90
9662;DHT22;24982;52.344;12.990;2023-03-31T19:40:47;10.70;99.90
9662;DHT22;24982;52.344;12.990;2023-03-31T19:43:49;10.80;99.90
9662;DHT22;24982;52.344;12.990;2023-03-31T19:46:51;10.80;99.90
9662;DHT22;24982;52.344;12.990;2023-03-31T19:49:54;10.70;99.90
9662;DHT22;24982;52.344;12.990;2023-03-31T19:52:57;10.70;99.90
9662;DHT22;24982;52.344;12.990;2023-03-31T19:56:00;10.60;99.90
9662;DHT22;24982;52.344;12.990;2023-03-31T19:59:03;10.60;99.90
9662;DHT22;24982;52.344;12.990;2023-03-31T20:02:06;10.70;99.90
9662;DHT22;24982;52.344;12.990;2023-03-31T20:05:10;10.70;99.90
9662;DHT22;24982;52.344;12.990;2023-03-31T20:08:12;10.70;99.90
9662;DHT22;24982;52.344;12.990;2023-03-31T20:11:16;10.70;99.90